createdAt,value
2019-01-14T00:00:38.418Z,19.25
2019-01-14T00:01:38.048Z,19.25
2019-01-14T00:02:38.225Z,19.25
2019-01-14T00:03:39.123Z,19.25
2019-01-14T00:04:38.052Z,19.25
2019-01-14T00:05:38.221Z,19.25
2019-01-14T00:06:38.363Z,19.25
2019-01-14T00:07:38.694Z,19.25
2019-01-14T00:08:38.185Z,19.25
2019-01-14T00:09:38.620Z,19.25
2019-01-14T00:10:39.893Z,19
2019-01-14T00:11:38.072Z,19
2019-01-14T00:12:38.732Z,19
2019-01-14T00:13:38.049Z,19
2019-01-14T00:14:38.280Z,19
2019-01-14T00:15:38.453Z,19
2019-01-14T00:16:38.339Z,19
2019-01-14T00:17:38.114Z,19
2019-01-14T00:18:38.288Z,19
2019-01-14T00:19:38.370Z,19
2019-01-14T00:20:38.079Z,19
2019-01-14T00:21:38.220Z,19
2019-01-14T00:23:38.159Z,19
2019-01-14T00:24:38.266Z,19
2019-01-14T00:25:38.066Z,19
2019-01-14T00:26:38.201Z,19
2019-01-14T00:27:38.216Z,19
2019-01-14T00:28:38.122Z,19
2019-01-14T00:29:38.231Z,19
2019-01-14T00:30:38.013Z,19
2019-01-14T00:31:38.352Z,19
2019-01-14T00:32:38.268Z,19
2019-01-14T00:33:38.216Z,19
2019-01-14T00:34:38.373Z,19
2019-01-14T00:35:38.292Z,19
2019-01-14T00:36:38.080Z,19
2019-01-14T00:37:38.186Z,19
2019-01-14T00:38:38.719Z,19
2019-01-14T00:39:38.082Z,19
2019-01-14T00:40:38.399Z,19
2019-01-14T00:41:38.008Z,19
2019-01-14T00:42:38.100Z,19
2019-01-14T00:43:38.114Z,19
2019-01-14T00:44:38.237Z,19
2019-01-14T00:45:38.078Z,19
2019-01-14T00:46:38.845Z,19
2019-01-14T00:47:37.930Z,19
2019-01-14T00:48:38.039Z,19
2019-01-14T00:49:38.217Z,19
2019-01-14T00:50:38.034Z,19
2019-01-14T00:51:38.125Z,19
2019-01-14T00:52:38.507Z,19
2019-01-14T00:53:38.079Z,19
2019-01-14T00:54:38.334Z,19
2019-01-14T00:55:38.033Z,19
2019-01-14T00:56:38.198Z,19
2019-01-14T00:57:38.172Z,19
2019-01-14T00:58:38.311Z,19
2019-01-14T00:59:38.397Z,19
2019-01-14T01:00:38.731Z,19
2019-01-14T01:01:38.299Z,19
2019-01-14T01:02:37.951Z,19
2019-01-14T01:03:38.090Z,19
2019-01-14T01:04:38.129Z,19
2019-01-14T01:05:39.715Z,19
2019-01-14T01:06:38.492Z,19
2019-01-14T01:07:38.035Z,19
2019-01-14T01:08:39.454Z,18.75
2019-01-14T01:09:38.123Z,18.75
2019-01-14T01:10:38.191Z,18.75
2019-01-14T01:11:37.994Z,18.75
2019-01-14T01:12:38.215Z,18.75
2019-01-14T01:13:38.758Z,18.75
2019-01-14T01:14:37.995Z,18.75
2019-01-14T01:15:38.114Z,18.75
2019-01-14T01:16:38.262Z,18.75
2019-01-14T01:17:38.134Z,18.75
2019-01-14T01:18:38.242Z,18.75
2019-01-14T01:19:38.711Z,18.75
2019-01-14T01:20:38.079Z,18.75
2019-01-14T01:21:38.441Z,18.75
2019-01-14T01:22:38.049Z,18.75
2019-01-14T01:23:38.321Z,18.75
2019-01-14T01:24:38.284Z,18.75
2019-01-14T01:25:38.036Z,18.75
2019-01-14T01:26:38.136Z,18.75
2019-01-14T01:27:38.938Z,18.75
2019-01-14T01:28:38.942Z,18.75
2019-01-14T01:29:38.687Z,18.75
2019-01-14T01:30:38.559Z,18.75
2019-01-14T01:31:38.092Z,18.75
2019-01-14T01:32:38.848Z,18.75
2019-01-14T01:33:38.351Z,18.75
2019-01-14T01:34:38.374Z,18.75
2019-01-14T01:35:38.178Z,18.75
2019-01-14T01:36:37.881Z,18.75
2019-01-14T01:37:38.208Z,18.75
2019-01-14T01:38:41.747Z,18.75
2019-01-14T01:39:37.999Z,18.75
2019-01-14T01:40:38.173Z,18.75
2019-01-14T01:41:38.177Z,18.75
2019-01-14T01:42:38.092Z,18.75
2019-01-14T01:43:38.511Z,18.75
2019-01-14T01:44:38.410Z,18.75
2019-01-14T01:45:38.195Z,18.75
2019-01-14T01:46:38.180Z,18.75
2019-01-14T01:47:38.275Z,18.75
2019-01-14T01:48:38.176Z,18.75
2019-01-14T01:49:38.201Z,18.75
2019-01-14T01:50:38.107Z,18.75
2019-01-14T01:51:38.163Z,18.75
2019-01-14T01:52:38.131Z,18.75
2019-01-14T01:53:38.236Z,18.75
2019-01-14T01:54:38.210Z,18.75
2019-01-14T01:55:38.431Z,18.75
2019-01-14T01:56:38.093Z,18.75
2019-01-14T01:57:37.959Z,18.75
2019-01-14T01:58:38.075Z,18.75
2019-01-14T01:59:38.114Z,18.75
2019-01-14T02:00:37.986Z,18.75
2019-01-14T02:01:38.078Z,18.75
2019-01-14T02:02:38.280Z,18.75
2019-01-14T02:03:38.298Z,18.75
2019-01-14T02:04:38.978Z,18.75
2019-01-14T02:05:38.012Z,18.75
2019-01-14T02:06:39.570Z,18.75
2019-01-14T02:07:38.181Z,18.75
2019-01-14T02:08:38.178Z,18.75
2019-01-14T02:09:38.042Z,18.75
2019-01-14T02:10:38.103Z,18.75
2019-01-14T02:11:37.993Z,18.75
2019-01-14T02:12:38.052Z,18.75
2019-01-14T02:13:38.174Z,18.75
2019-01-14T02:14:38.567Z,18.75
2019-01-14T02:15:38.122Z,18.75
2019-01-14T02:16:38.345Z,18.75
2019-01-14T02:17:38.490Z,18.5
2019-01-14T02:18:38.163Z,18.5
2019-01-14T02:19:38.383Z,18.5
2019-01-14T02:20:38.033Z,18.5
2019-01-14T02:21:38.048Z,18.5
2019-01-14T02:22:37.857Z,18.5
2019-01-14T02:23:37.933Z,18.5
2019-01-14T02:24:38.178Z,18.5
2019-01-14T02:25:37.871Z,18.5
2019-01-14T02:26:38.253Z,18.5
2019-01-14T02:27:38.270Z,18.5
2019-01-14T02:28:37.996Z,18.5
2019-01-14T02:29:38.023Z,18.5
2019-01-14T02:30:38.377Z,18.5
2019-01-14T02:31:37.877Z,18.5
2019-01-14T02:32:38.120Z,18.5
2019-01-14T02:33:38.099Z,18.5
2019-01-14T02:34:38.046Z,18.5
2019-01-14T02:35:38.054Z,18.5
2019-01-14T02:36:38.310Z,18.5
2019-01-14T02:37:38.261Z,18.5
2019-01-14T02:38:38.413Z,18.5
2019-01-14T02:39:38.363Z,18.5
2019-01-14T02:40:38.101Z,18.5
2019-01-14T02:41:38.343Z,18.5
2019-01-14T02:42:38.190Z,18.5
2019-01-14T02:43:38.287Z,18.5
2019-01-14T02:44:38.295Z,18.5
2019-01-14T02:45:38.245Z,18.5
2019-01-14T02:46:38.152Z,18.5
2019-01-14T02:47:39.948Z,18.5
2019-01-14T02:48:38.796Z,18.5
2019-01-14T02:49:38.226Z,18.5
2019-01-14T02:50:38.658Z,18.5
2019-01-14T02:51:38.060Z,18.5
2019-01-14T02:53:38.372Z,18.5
2019-01-14T02:54:38.026Z,18.5
2019-01-14T02:55:38.163Z,18.5
2019-01-14T02:56:38.156Z,18.5
2019-01-14T02:57:38.062Z,18.5
2019-01-14T02:58:38.162Z,18.5
2019-01-14T02:59:38.278Z,18.5
2019-01-14T03:00:38.047Z,18.5
2019-01-14T03:01:38.403Z,18.5
2019-01-14T03:02:38.912Z,18.5
2019-01-14T03:03:38.281Z,18.5
2019-01-14T03:04:38.014Z,18.5
2019-01-14T03:05:37.895Z,18.5
2019-01-14T03:06:38.251Z,18.5
2019-01-14T03:07:38.148Z,18.5
2019-01-14T03:08:37.915Z,18.5
2019-01-14T03:09:38.556Z,18.5
2019-01-14T03:10:38.173Z,18.5
2019-01-14T03:11:37.999Z,18.5
2019-01-14T03:12:37.997Z,18.5
2019-01-14T03:13:37.866Z,18.5
2019-01-14T03:14:38.061Z,18.5
2019-01-14T03:15:38.152Z,18.5
2019-01-14T03:16:37.922Z,18.5
2019-01-14T03:17:38.150Z,18.5
2019-01-14T03:18:39.118Z,18.5
2019-01-14T03:19:37.961Z,18.5
2019-01-14T03:20:38.121Z,18.5
2019-01-14T03:21:38.421Z,18.5
2019-01-14T03:22:38.030Z,18.5
2019-01-14T03:23:38.007Z,18.5
2019-01-14T03:24:38.057Z,18.5
2019-01-14T03:25:37.954Z,18.5
2019-01-14T03:26:38.071Z,18.5
2019-01-14T03:27:38.110Z,18.5
2019-01-14T03:28:38.118Z,18.5
2019-01-14T03:29:38.175Z,18.5
2019-01-14T03:30:38.360Z,18.5
2019-01-14T03:31:38.311Z,18.5
2019-01-14T03:32:38.173Z,18.5
2019-01-14T03:33:37.858Z,18.5
2019-01-14T03:34:38.322Z,18.5
2019-01-14T03:35:38.355Z,18.5
2019-01-14T03:36:37.882Z,18.5
2019-01-14T03:37:38.341Z,18.5
2019-01-14T03:38:38.148Z,18.5
2019-01-14T03:39:38.273Z,18.5
2019-01-14T03:40:38.094Z,18.5
2019-01-14T03:41:39.961Z,18.5
2019-01-14T03:42:38.482Z,18.25
2019-01-14T03:43:38.487Z,18.25
2019-01-14T03:44:38.109Z,18.25
2019-01-14T03:45:38.502Z,18.25
2019-01-14T03:46:38.399Z,18.25
2019-01-14T03:47:38.151Z,18.25
2019-01-14T03:48:38.122Z,18.25
2019-01-14T03:49:38.184Z,18.25
2019-01-14T03:50:38.240Z,18.25
2019-01-14T03:51:38.434Z,18.25
2019-01-14T03:52:38.104Z,18.25
2019-01-14T03:53:38.178Z,18.25
2019-01-14T03:54:38.066Z,18.25
2019-01-14T03:55:38.273Z,18.25
2019-01-14T03:56:38.082Z,18.25
2019-01-14T03:57:37.949Z,18.25
2019-01-14T03:58:38.110Z,18.25
2019-01-14T03:59:38.062Z,18.25
2019-01-14T04:00:38.039Z,18.25
2019-01-14T04:01:38.351Z,18.25
2019-01-14T04:02:38.017Z,18.25
2019-01-14T04:03:37.940Z,18.25
2019-01-14T04:04:38.166Z,18.25
2019-01-14T04:05:38.111Z,18.25
2019-01-14T04:06:38.024Z,18.25
2019-01-14T04:07:38.093Z,18.25
2019-01-14T04:08:38.134Z,18.25
2019-01-14T04:09:38.271Z,18.25
2019-01-14T04:10:39.076Z,18.25
2019-01-14T04:11:37.993Z,18.25
2019-01-14T04:12:38.409Z,18.25
2019-01-14T04:13:38.296Z,18.25
2019-01-14T04:14:38.175Z,18.25
2019-01-14T04:15:38.017Z,18.25
2019-01-14T04:16:38.518Z,18.25
2019-01-14T04:17:38.034Z,18.25
2019-01-14T04:18:38.163Z,18.25
2019-01-14T04:19:38.142Z,18.25
2019-01-14T04:20:39.030Z,18.25
2019-01-14T04:21:38.121Z,18.25
2019-01-14T04:22:38.565Z,18.25
2019-01-14T04:23:38.346Z,18.25
2019-01-14T04:24:38.954Z,18.25
2019-01-14T04:25:38.515Z,18.25
2019-01-14T04:26:38.616Z,18.25
2019-01-14T04:27:38.398Z,18.25
2019-01-14T04:28:38.206Z,18.25
2019-01-14T04:29:38.153Z,18.25
2019-01-14T04:30:38.005Z,18.25
2019-01-14T04:31:38.229Z,18.25
2019-01-14T04:32:38.318Z,18.25
2019-01-14T04:33:38.647Z,18.25
2019-01-14T04:34:37.891Z,18.25
2019-01-14T04:35:38.346Z,18.25
2019-01-14T04:36:38.368Z,18.25
2019-01-14T04:37:37.977Z,18.25
2019-01-14T04:38:38.274Z,18.25
2019-01-14T04:39:38.264Z,18.25
2019-01-14T04:40:38.245Z,18.25
2019-01-14T04:41:38.226Z,18.25
2019-01-14T04:42:38.169Z,18.25
2019-01-14T04:43:37.911Z,18.25
2019-01-14T04:44:38.106Z,18.25
2019-01-14T04:45:38.073Z,18.25
2019-01-14T04:46:38.110Z,18.25
2019-01-14T04:47:38.465Z,18.25
2019-01-14T04:48:37.977Z,18.25
2019-01-14T04:49:38.062Z,18.25
2019-01-14T04:50:38.139Z,18.25
2019-01-14T04:51:38.452Z,18.25
2019-01-14T04:52:38.078Z,18.25
2019-01-14T04:53:39.953Z,18.25
2019-01-14T04:54:38.198Z,18.25
2019-01-14T04:55:38.033Z,18.25
2019-01-14T04:56:38.401Z,18.25
2019-01-14T04:57:37.941Z,18.25
2019-01-14T04:58:38.474Z,18.25
2019-01-14T04:59:38.134Z,18.25
2019-01-14T05:00:39.134Z,18.25
2019-01-14T05:01:38.060Z,18.25
2019-01-14T05:02:39.734Z,18.25
2019-01-14T05:03:37.949Z,18.25
2019-01-14T05:04:39.160Z,18.25
2019-01-14T05:05:38.296Z,18.25
2019-01-14T05:06:38.473Z,18.5
2019-01-14T05:07:38.794Z,18.5
2019-01-14T05:08:38.539Z,18.5
2019-01-14T05:09:38.279Z,18.5
2019-01-14T05:10:38.350Z,18.5
2019-01-14T05:11:37.986Z,18.5
2019-01-14T05:12:38.325Z,18.5
2019-01-14T05:13:38.184Z,18.5
2019-01-14T05:14:38.200Z,18.5
2019-01-14T05:15:38.035Z,18.5
2019-01-14T05:16:39.929Z,18.5
2019-01-14T05:17:38.471Z,18.5
2019-01-14T05:18:39.088Z,18.5
2019-01-14T05:19:38.198Z,18.5
2019-01-14T05:20:37.951Z,18.5
2019-01-14T05:21:38.259Z,18.5
2019-01-14T05:22:38.016Z,18.5
2019-01-14T05:23:37.896Z,18.5
2019-01-14T05:24:38.304Z,18.75
2019-01-14T05:25:38.304Z,18.5
2019-01-14T05:26:37.948Z,18.75
2019-01-14T05:27:38.521Z,18.75
2019-01-14T05:28:38.035Z,18.75
2019-01-14T05:29:37.980Z,18.75
2019-01-14T05:30:38.008Z,18.75
2019-01-14T05:31:38.045Z,18.75
2019-01-14T05:32:38.304Z,18.75
2019-01-14T05:33:38.257Z,18.75
2019-01-14T05:34:37.925Z,18.75
2019-01-14T05:35:38.044Z,18.75
2019-01-14T05:36:38.105Z,18.75
2019-01-14T05:37:38.410Z,18.75
2019-01-14T05:38:37.921Z,18.75
2019-01-14T05:39:38.737Z,18.75
2019-01-14T05:40:38.427Z,18.75
2019-01-14T05:41:38.025Z,18.75
2019-01-14T05:42:38.306Z,18.75
2019-01-14T05:43:38.216Z,18.75
2019-01-14T05:44:38.057Z,18.75
2019-01-14T05:45:38.528Z,19
2019-01-14T05:46:37.880Z,19
2019-01-14T05:47:38.239Z,19
2019-01-14T05:48:38.437Z,19
2019-01-14T05:49:37.798Z,19
2019-01-14T05:50:38.259Z,19
2019-01-14T05:51:38.292Z,19
2019-01-14T05:52:38.149Z,19
2019-01-14T05:53:38.046Z,19
2019-01-14T05:54:37.992Z,19
2019-01-14T05:55:38.033Z,19
2019-01-14T05:56:38.085Z,19
2019-01-14T05:57:37.817Z,19
2019-01-14T05:58:37.994Z,19
2019-01-14T05:59:38.110Z,19
2019-01-14T06:00:37.962Z,19
2019-01-14T06:01:37.933Z,19
2019-01-14T06:02:38.474Z,19
2019-01-14T06:03:37.986Z,19
2019-01-14T06:04:38.145Z,19
2019-01-14T06:05:37.753Z,19
2019-01-14T06:06:38.244Z,19.25
2019-01-14T06:07:45.352Z,19.25
2019-01-14T06:08:38.148Z,19.25
2019-01-14T06:09:37.822Z,19.25
2019-01-14T06:10:38.074Z,19.25
2019-01-14T06:11:38.328Z,19.25
2019-01-14T06:12:39.203Z,19.25
2019-01-14T06:13:38.260Z,19.25
2019-01-14T06:14:38.312Z,19.25
2019-01-14T06:15:37.976Z,19.25
2019-01-14T06:16:38.141Z,19.25
2019-01-14T06:17:38.196Z,19.25
2019-01-14T06:18:38.029Z,19.25
2019-01-14T06:19:38.002Z,19.25
2019-01-14T06:20:38.339Z,19.25
2019-01-14T06:21:38.029Z,19.25
2019-01-14T06:22:38.638Z,19.25
2019-01-14T06:23:37.971Z,19.25
2019-01-14T06:24:38.214Z,19.5
2019-01-14T06:25:38.381Z,19.5
2019-01-14T06:26:38.419Z,19.5
2019-01-14T06:27:37.906Z,19.5
2019-01-14T06:28:38.413Z,19.5
2019-01-14T06:29:37.991Z,19.5
2019-01-14T06:30:38.868Z,19.5
2019-01-14T06:31:38.100Z,19.5
2019-01-14T06:32:37.973Z,19.5
2019-01-14T06:33:37.989Z,19.5
2019-01-14T06:34:39.047Z,19.5
2019-01-14T06:35:38.367Z,19.5
2019-01-14T06:36:38.180Z,19.5
2019-01-14T06:37:37.898Z,19.5
2019-01-14T06:38:37.879Z,19.5
2019-01-14T06:39:38.453Z,19.5
2019-01-14T06:40:37.960Z,19.5
2019-01-14T06:41:38.270Z,19.5
2019-01-14T06:42:38.580Z,19.5
2019-01-14T06:43:37.929Z,19.5
2019-01-14T06:44:38.367Z,19.5
2019-01-14T06:45:37.976Z,19.5
2019-01-14T06:46:38.033Z,19.5
2019-01-14T06:47:38.063Z,19.5
2019-01-14T06:48:40.007Z,19.5
2019-01-14T06:49:38.376Z,19.5
2019-01-14T06:50:38.357Z,19.5
2019-01-14T06:51:37.988Z,19.5
2019-01-14T06:52:37.886Z,19.5
2019-01-14T06:53:37.934Z,19.5
2019-01-14T06:54:37.849Z,19.5
2019-01-14T06:55:38.013Z,19.5
2019-01-14T06:56:38.096Z,19.5
2019-01-14T06:57:37.978Z,19.5
2019-01-14T06:58:38.878Z,19.5
2019-01-14T06:59:38.362Z,19.5
2019-01-14T07:00:38.391Z,19.5
2019-01-14T07:01:38.033Z,19.5
2019-01-14T07:02:38.342Z,19.5
2019-01-14T07:03:38.102Z,19.5
2019-01-14T07:04:38.082Z,19.5
2019-01-14T07:05:38.047Z,19.5
2019-01-14T07:06:38.412Z,19.5
2019-01-14T07:07:38.066Z,19.5
2019-01-14T07:08:38.383Z,19.5
2019-01-14T07:09:38.365Z,19.75
2019-01-14T07:10:38.105Z,19.75
2019-01-14T07:11:38.991Z,19.75
2019-01-14T07:12:37.853Z,19.75
2019-01-14T07:13:38.676Z,19.75
2019-01-14T07:14:37.820Z,19.75
2019-01-14T07:15:37.995Z,19.75
2019-01-14T07:16:38.080Z,19.75
2019-01-14T07:17:38.303Z,19.75
2019-01-14T07:18:38.040Z,19.75
2019-01-14T07:19:38.392Z,19.75
2019-01-14T07:20:38.188Z,19.75
2019-01-14T07:21:37.880Z,19.75
2019-01-14T07:22:38.216Z,19.75
2019-01-14T07:23:38.644Z,19.75
2019-01-14T07:24:38.177Z,19.75
2019-01-14T07:25:38.108Z,19.75
2019-01-14T07:26:37.915Z,19.75
2019-01-14T07:27:37.998Z,19.75
2019-01-14T07:28:38.109Z,19.75
2019-01-14T07:29:38.089Z,19.75
2019-01-14T07:30:37.927Z,19.75
2019-01-14T07:31:37.860Z,19.75
2019-01-14T07:32:38.464Z,19.75
2019-01-14T07:33:37.936Z,19.75
2019-01-14T07:34:38.318Z,19.75
2019-01-14T07:35:37.911Z,19.75
2019-01-14T07:36:38.412Z,19.75
2019-01-14T07:37:38.231Z,19.75
2019-01-14T07:39:38.070Z,19.75
2019-01-14T07:40:37.974Z,19.75
2019-01-14T07:41:37.850Z,19.75
2019-01-14T07:42:38.178Z,19.75
2019-01-14T07:43:37.786Z,19.75
2019-01-14T07:44:38.001Z,19.75
2019-01-14T07:45:38.176Z,19.75
2019-01-14T07:46:37.802Z,19.75
2019-01-14T07:47:38.013Z,19.75
2019-01-14T07:48:38.161Z,19.75
2019-01-14T07:49:38.173Z,19.75
2019-01-14T07:50:37.914Z,19.75
2019-01-14T07:51:39.268Z,19.75
2019-01-14T07:52:38.084Z,19.75
2019-01-14T07:53:38.005Z,19.75
2019-01-14T07:54:38.064Z,19.75
2019-01-14T07:55:38.186Z,19.75
2019-01-14T07:56:38.040Z,19.75
2019-01-14T07:57:38.217Z,19.75
2019-01-14T07:58:38.209Z,19.75
2019-01-14T07:59:38.336Z,19.75
2019-01-14T08:00:38.139Z,20
2019-01-14T08:01:38.229Z,20
2019-01-14T08:02:38.420Z,19.75
2019-01-14T08:03:38.173Z,20
2019-01-14T08:04:38.100Z,20
2019-01-14T08:05:38.758Z,20
2019-01-14T08:06:38.116Z,20
2019-01-14T08:07:38.146Z,20
2019-01-14T08:08:37.938Z,20
2019-01-14T08:09:38.322Z,20
2019-01-14T08:10:37.962Z,20
2019-01-14T08:11:38.859Z,20
2019-01-14T08:12:39.747Z,20
2019-01-14T08:13:38.454Z,20
2019-01-14T08:14:38.049Z,20
2019-01-14T08:15:38.037Z,20
2019-01-14T08:16:38.255Z,20
2019-01-14T08:17:38.059Z,19.75
2019-01-14T08:18:38.182Z,19.5
2019-01-14T08:19:38.600Z,19.5
2019-01-14T08:20:37.967Z,19.25
2019-01-14T08:21:37.920Z,19.25
2019-01-14T08:22:37.927Z,19
2019-01-14T08:23:38.593Z,19
2019-01-14T08:24:37.963Z,18.75
2019-01-14T08:25:38.170Z,18.75
2019-01-14T08:26:37.998Z,18.75
2019-01-14T08:27:38.295Z,18.75
2019-01-14T08:28:38.090Z,18.75
2019-01-14T08:29:37.839Z,19
2019-01-14T08:30:39.783Z,19
2019-01-14T08:31:38.808Z,19
2019-01-14T08:32:38.169Z,19
2019-01-14T08:33:38.457Z,19
2019-01-14T08:34:38.268Z,19
2019-01-14T08:35:38.382Z,19
2019-01-14T08:36:37.838Z,19
2019-01-14T08:37:38.282Z,19
2019-01-14T08:38:37.731Z,19.25
2019-01-14T08:39:38.084Z,19.25
2019-01-14T08:40:38.521Z,19.25
2019-01-14T08:41:38.064Z,19.25
2019-01-14T08:42:38.104Z,19.25
2019-01-14T08:43:37.789Z,19.25
2019-01-14T08:44:37.899Z,19.25
2019-01-14T08:45:37.947Z,19.25
2019-01-14T08:46:37.963Z,19.25
2019-01-14T08:47:37.993Z,19.25
2019-01-14T08:48:38.211Z,19.25
2019-01-14T08:49:38.016Z,19.25
2019-01-14T08:50:38.323Z,19.25
2019-01-14T08:51:37.994Z,19.25
2019-01-14T08:52:38.500Z,19.25
2019-01-14T08:53:37.920Z,19.25
2019-01-14T08:54:37.727Z,19.25
2019-01-14T08:55:37.829Z,19.25
2019-01-14T08:56:39.020Z,19.25
2019-01-14T08:57:38.137Z,19.25
2019-01-14T08:58:38.089Z,19.25
2019-01-14T08:59:38.107Z,19.25
2019-01-14T09:00:37.874Z,19.25
2019-01-14T09:01:39.718Z,19.25
2019-01-14T09:02:38.696Z,19.25
2019-01-14T09:03:38.021Z,19.25
2019-01-14T09:04:38.272Z,19.25
2019-01-14T09:05:38.341Z,19.25
2019-01-14T09:06:37.938Z,19.25
2019-01-14T09:08:38.399Z,19.25
2019-01-14T09:09:38.108Z,19.25
2019-01-14T09:10:38.602Z,19.25
2019-01-14T09:11:39.855Z,19
2019-01-14T09:12:37.889Z,19
2019-01-14T09:13:38.042Z,19
2019-01-14T09:14:37.857Z,19
2019-01-14T09:15:38.224Z,19
2019-01-14T09:16:38.311Z,19
2019-01-14T09:17:37.946Z,19
2019-01-14T09:18:38.020Z,18.75
2019-01-14T09:19:38.341Z,18.75
2019-01-14T09:20:37.895Z,18.75
2019-01-14T09:21:38.641Z,18.75
2019-01-14T09:22:38.355Z,18.75
2019-01-14T09:23:38.000Z,18.75
2019-01-14T09:24:37.906Z,18.75
2019-01-14T09:25:39.844Z,18.75
2019-01-14T09:26:37.989Z,18.75
2019-01-14T09:27:37.999Z,18.75
2019-01-14T09:28:38.151Z,18.75
2019-01-14T09:29:38.279Z,18.75
2019-01-14T09:30:37.928Z,18.5
2019-01-14T09:31:38.012Z,18.5
2019-01-14T09:32:38.152Z,18.5
2019-01-14T09:33:38.425Z,18.5
2019-01-14T09:34:37.870Z,18.5
2019-01-14T09:35:38.064Z,18.5
2019-01-14T09:36:38.585Z,18.5
2019-01-14T09:37:37.876Z,18.5
2019-01-14T09:38:37.841Z,18.5
2019-01-14T09:39:38.021Z,18.5
2019-01-14T09:40:38.050Z,18.75
2019-01-14T09:41:38.033Z,18.75
2019-01-14T09:42:38.126Z,18.75
2019-01-14T09:43:38.055Z,18.75
2019-01-14T09:44:37.909Z,18.75
2019-01-14T09:45:38.479Z,18.75
2019-01-14T09:46:38.095Z,18.75
2019-01-14T09:47:38.195Z,18.75
2019-01-14T09:48:37.954Z,18.5
2019-01-14T09:49:37.806Z,18.5
2019-01-14T09:50:37.986Z,18.5
2019-01-14T09:51:38.019Z,18.5
2019-01-14T09:52:37.797Z,18.5
2019-01-14T09:53:37.969Z,18.5
2019-01-14T09:54:38.335Z,18.75
2019-01-14T09:55:38.250Z,18.75
2019-01-14T09:56:37.965Z,18.75
2019-01-14T09:57:38.025Z,18.75
2019-01-14T09:58:38.977Z,18.75
2019-01-14T09:59:37.843Z,18.5
2019-01-14T10:00:37.954Z,18.5
2019-01-14T10:01:38.276Z,18.5
2019-01-14T10:02:39.570Z,18.5
2019-01-14T10:03:38.084Z,18.5
2019-01-14T10:04:37.905Z,18.5
2019-01-14T10:05:38.282Z,18.5
2019-01-14T10:06:38.186Z,18.5
2019-01-14T10:07:38.675Z,18.5
2019-01-14T10:08:43.505Z,18.5
2019-01-14T10:09:37.808Z,18.75
2019-01-14T10:10:38.004Z,18.75
2019-01-14T10:11:38.090Z,18.75
2019-01-14T10:12:38.082Z,18.75
2019-01-14T10:13:38.081Z,18.75
2019-01-14T10:14:38.033Z,18.75
2019-01-14T10:15:38.217Z,18.75
2019-01-14T10:16:38.068Z,18.75
2019-01-14T10:17:38.172Z,18.75
2019-01-14T10:18:37.915Z,18.75
2019-01-14T10:19:38.009Z,18.75
2019-01-14T10:20:38.337Z,18.75
2019-01-14T10:21:38.195Z,18.75
2019-01-14T10:22:38.025Z,18.75
2019-01-14T10:23:37.831Z,18.75
2019-01-14T10:24:38.113Z,18.75
2019-01-14T10:25:38.089Z,18.75
2019-01-14T10:26:37.866Z,18.75
2019-01-14T10:27:37.771Z,18.75
2019-01-14T10:28:37.973Z,18.75
2019-01-14T10:29:38.149Z,18.75
2019-01-14T10:30:37.961Z,18.75
2019-01-14T10:31:37.988Z,18.75
2019-01-14T10:32:37.987Z,18.75
2019-01-14T10:33:38.588Z,18.75
2019-01-14T10:34:37.892Z,18.75
2019-01-14T10:35:38.043Z,18.75
2019-01-14T10:36:37.783Z,18.75
2019-01-14T10:37:38.273Z,19
2019-01-14T10:38:38.067Z,18.75
2019-01-14T10:39:38.258Z,18.75
2019-01-14T10:40:38.294Z,18.75
2019-01-14T10:41:38.215Z,18.75
2019-01-14T10:42:37.997Z,18.75
2019-01-14T10:43:37.716Z,18.5
2019-01-14T10:44:37.939Z,18.5
2019-01-14T10:45:39.844Z,18.5
2019-01-14T10:46:37.900Z,18.5
2019-01-14T10:47:38.320Z,18.5
2019-01-14T10:48:38.283Z,18.5
2019-01-14T10:49:38.505Z,18.75
2019-01-14T10:50:37.915Z,18.75
2019-01-14T10:51:38.153Z,18.75
2019-01-14T10:52:38.205Z,18.75
2019-01-14T10:53:38.069Z,18.75
2019-01-14T10:54:38.096Z,18.75
2019-01-14T10:56:37.948Z,18.75
2019-01-14T10:57:38.282Z,18.75
2019-01-14T10:58:38.526Z,18.75
2019-01-14T10:59:38.069Z,18.75
2019-01-14T11:00:38.146Z,18.75
2019-01-14T11:01:38.168Z,18.75
2019-01-14T11:02:38.159Z,18.75
2019-01-14T11:03:38.061Z,18.75
2019-01-14T11:04:38.240Z,18.75
2019-01-14T11:05:38.142Z,18.75
2019-01-14T11:06:37.846Z,18.75
2019-01-14T11:07:37.985Z,18.75
2019-01-14T11:08:38.653Z,18.75
2019-01-14T11:09:37.918Z,18.75
2019-01-14T11:10:37.956Z,18.75
2019-01-14T11:11:37.918Z,18.75
2019-01-14T11:12:38.083Z,18.75
2019-01-14T11:13:37.844Z,18.75
2019-01-14T11:14:38.005Z,18.75
2019-01-14T11:15:37.940Z,18.75
2019-01-14T11:16:37.820Z,18.75
2019-01-14T11:17:38.070Z,18.75
2019-01-14T11:18:37.814Z,18.75
2019-01-14T11:19:37.971Z,18.75
2019-01-14T11:20:37.792Z,18.75
2019-01-14T11:21:37.886Z,18.75
2019-01-14T11:22:37.952Z,18.75
2019-01-14T11:23:38.062Z,18.75
2019-01-14T11:24:37.827Z,18.75
2019-01-14T11:25:37.848Z,18.75
2019-01-14T11:26:37.699Z,18.75
2019-01-14T11:27:37.799Z,18.75
2019-01-14T11:28:37.951Z,18.75
2019-01-14T11:29:37.884Z,18.75
2019-01-14T11:30:37.837Z,18.75
2019-01-14T11:31:39.719Z,18.75
2019-01-14T11:32:37.682Z,19
2019-01-14T11:33:38.907Z,19
2019-01-14T11:34:37.884Z,19
2019-01-14T11:35:37.868Z,19
2019-01-14T11:36:38.076Z,19
2019-01-14T11:37:38.150Z,19
2019-01-14T11:38:37.849Z,19
2019-01-14T11:39:37.909Z,19
2019-01-14T11:40:37.921Z,19
2019-01-14T11:41:37.758Z,19
2019-01-14T11:42:38.181Z,19
2019-01-14T11:43:37.870Z,19
2019-01-14T11:44:37.786Z,19
2019-01-14T11:45:38.501Z,19.25
2019-01-14T11:46:37.857Z,19.25
2019-01-14T11:47:37.709Z,19.25
2019-01-14T11:48:38.045Z,19.25
2019-01-14T11:49:37.730Z,19.25
2019-01-14T11:50:37.821Z,19.25
2019-01-14T11:51:38.022Z,19.25
2019-01-14T11:52:37.997Z,19.25
2019-01-14T11:53:37.989Z,19.25
2019-01-14T11:54:38.123Z,19.25
2019-01-14T11:55:37.824Z,19.25
2019-01-14T11:56:38.018Z,19.25
2019-01-14T11:57:38.021Z,19.25
2019-01-14T11:58:37.868Z,19.25
2019-01-14T11:59:38.267Z,19.25
2019-01-14T12:00:38.009Z,19.5
2019-01-14T12:01:37.865Z,19.5
2019-01-14T12:02:40.124Z,19.5
2019-01-14T12:03:38.073Z,19.5
2019-01-14T12:04:38.620Z,19.5
2019-01-14T12:05:38.200Z,19.5
2019-01-14T12:06:38.492Z,19.5
2019-01-14T12:07:38.021Z,19.5
2019-01-14T12:08:37.882Z,19.5
2019-01-14T12:10:38.164Z,19.5
2019-01-14T12:11:37.913Z,19.5
2019-01-14T12:12:39.663Z,19.5
2019-01-14T12:13:38.314Z,19.5
2019-01-14T12:14:37.848Z,19.5
2019-01-14T12:15:38.245Z,19.5
2019-01-14T12:16:38.384Z,19.5
2019-01-14T12:17:37.887Z,19.5
2019-01-14T12:18:37.879Z,19.5
2019-01-14T12:19:37.893Z,19.5
2019-01-14T12:20:38.440Z,19.5
2019-01-14T12:21:37.810Z,19.5
2019-01-14T12:22:39.455Z,19.5
2019-01-14T12:23:37.973Z,19.75
2019-01-14T12:24:37.920Z,19.75
2019-01-14T12:25:38.132Z,19.75
2019-01-14T12:26:37.818Z,19.75
2019-01-14T12:27:37.942Z,19.75
2019-01-14T12:28:38.354Z,19.75
2019-01-14T12:29:38.121Z,19.75
2019-01-14T12:30:37.903Z,19.75
2019-01-14T12:31:38.311Z,19.75
2019-01-14T12:32:37.865Z,19.75
2019-01-14T12:33:37.813Z,19.75
2019-01-14T12:34:38.153Z,19.75
2019-01-14T12:35:38.039Z,19.75
2019-01-14T12:36:37.917Z,19.75
2019-01-14T12:37:38.172Z,19.75
2019-01-14T12:38:38.300Z,19.75
2019-01-14T12:39:38.259Z,19.75
2019-01-14T12:40:37.765Z,19.75
2019-01-14T12:41:37.779Z,19.75
2019-01-14T12:42:37.863Z,19.75
2019-01-14T12:43:37.856Z,19.75
2019-01-14T12:44:38.222Z,19.75
2019-01-14T12:45:37.961Z,19.75
2019-01-14T12:46:38.094Z,19.75
2019-01-14T12:47:39.835Z,19.75
2019-01-14T12:48:38.011Z,19.75
2019-01-14T12:49:37.929Z,19.75
2019-01-14T12:50:38.812Z,19.75
2019-01-14T12:51:37.724Z,19.75
2019-01-14T12:52:37.816Z,19.75
2019-01-14T12:53:38.016Z,20
2019-01-14T12:54:38.049Z,20
2019-01-14T12:55:37.813Z,20
2019-01-14T12:56:38.317Z,19.75
2019-01-14T12:57:39.675Z,19.75
2019-01-14T12:58:38.431Z,20
2019-01-14T12:59:38.040Z,19.75
2019-01-14T13:00:38.070Z,19.75
2019-01-14T13:01:37.904Z,20
2019-01-14T13:02:37.882Z,20
2019-01-14T13:03:37.891Z,20
2019-01-14T13:04:37.831Z,20
2019-01-14T13:05:37.667Z,20
2019-01-14T13:06:38.000Z,20
2019-01-14T13:07:38.039Z,20
2019-01-14T13:08:37.845Z,20
2019-01-14T13:09:38.801Z,20
2019-01-14T13:10:37.894Z,20
2019-01-14T13:11:37.992Z,20
2019-01-14T13:12:37.841Z,20
2019-01-14T13:13:37.805Z,20
2019-01-14T13:14:37.847Z,20
2019-01-14T13:15:37.974Z,20
2019-01-14T13:16:37.893Z,20
2019-01-14T13:17:37.815Z,20
2019-01-14T13:18:37.968Z,20
2019-01-14T13:19:37.728Z,20